KBOK

Brookings Airport

Brookings, Oregon, USA

KBOK 110856Z AUTO 08005KT 10SM CLR 07/02 A3024 RMK AO2 SLP255 6//// T00670022 51003

Observed Flight Rules
Dec-11 @ 08:56 UTC (34 minutes ago) Visual Flight Rules
Wind Visibility Clouds
80° at 5 knots 10 miles
  • Clear skies
Temperatures Readings
Current 7°C / 45°F
Dewpoint 2°C / 36°F
Humidity 71%
Altimeter 30.24" Hg
Pressure 1025.5 hPa
Elevation 140
Observed Flight Rules
Dec-11 @ 08:56 UTC
(34 minutes ago)
VFR
Wind Visibility
80° at 5 knots 10 miles
Clouds
  • Clear skies
Temperature Dewpoint
7°C / 45°F 2°C / 36°F
Humidity Altimeter Pressure
71% 30.24" Hg 1025.5 hPa